createdAt,value
2017-08-12T00:02:01.861Z,15.20
2017-08-12T00:04:29.419Z,15.20
2017-08-12T00:06:56.877Z,15.20
2017-08-12T00:09:24.839Z,15.30
2017-08-12T00:11:52.321Z,15.30
2017-08-12T00:14:19.755Z,15.30
2017-08-12T00:16:47.226Z,15.30
2017-08-12T00:19:14.646Z,15.30
2017-08-12T00:21:42.169Z,15.30
2017-08-12T00:24:09.682Z,15.30
2017-08-12T00:26:37.123Z,15.30
2017-08-12T00:29:04.564Z,15.30
2017-08-12T00:31:31.984Z,15.30
2017-08-12T00:33:59.425Z,15.40
2017-08-12T00:36:26.880Z,15.40
2017-08-12T00:38:54.332Z,15.40
2017-08-12T00:41:21.779Z,15.30
2017-08-12T00:43:49.224Z,15.40
2017-08-12T00:46:16.665Z,15.40
2017-08-12T00:48:44.103Z,15.40
2017-08-12T00:51:12.292Z,15.40
2017-08-12T00:53:39.729Z,15.30
2017-08-12T00:56:07.157Z,15.30
2017-08-12T00:58:34.592Z,15.30
2017-08-12T01:01:02.039Z,15.30
2017-08-12T01:03:29.461Z,15.30
2017-08-12T01:05:56.905Z,15.30
2017-08-12T01:08:25.101Z,15.30
2017-08-12T01:10:52.536Z,15.30
2017-08-12T01:13:19.974Z,15.30
2017-08-12T01:15:47.408Z,15.30
2017-08-12T01:18:14.841Z,15.30
2017-08-12T01:20:42.277Z,15.30
2017-08-12T01:23:09.701Z,15.30
2017-08-12T01:25:37.906Z,15.30
2017-08-12T01:28:05.340Z,15.30
2017-08-12T01:30:32.789Z,15.30
2017-08-12T01:33:00.237Z,15.30
2017-08-12T01:35:27.680Z,15.30
2017-08-12T01:37:55.134Z,15.20
2017-08-12T01:40:22.573Z,15.30
2017-08-12T01:42:50.016Z,15.30
2017-08-12T01:45:17.608Z,15.30
2017-08-12T01:47:45.032Z,15.30
2017-08-12T01:50:12.452Z,15.30
2017-08-12T01:52:39.909Z,15.30
2017-08-12T01:55:07.352Z,15.20
2017-08-12T01:57:34.794Z,15.20
2017-08-12T02:00:02.228Z,15.30
2017-08-12T02:02:29.696Z,15.30
2017-08-12T02:04:57.230Z,15.20
2017-08-12T02:07:24.681Z,15.20
2017-08-12T02:09:52.114Z,15.20
2017-08-12T02:12:19.568Z,15.20
2017-08-12T02:14:47.059Z,15.20
2017-08-12T02:17:14.692Z,15.30
2017-08-12T02:19:42.124Z,15.20
2017-08-12T02:22:10.341Z,15.30
2017-08-12T02:24:37.777Z,15.20
2017-08-12T02:27:05.212Z,15.20
2017-08-12T02:29:32.664Z,15.30
2017-08-12T02:32:00.168Z,15.30
2017-08-12T02:34:27.629Z,15.30
2017-08-12T02:36:55.064Z,15.20
2017-08-12T02:39:22.500Z,15.30
2017-08-12T02:41:49.935Z,15.20
2017-08-12T02:44:17.368Z,15.30
2017-08-12T02:46:44.798Z,15.20
2017-08-12T02:49:12.264Z,15.30
2017-08-12T02:51:39.730Z,15.30
2017-08-12T02:54:07.289Z,15.30
2017-08-12T02:56:34.728Z,15.20
2017-08-12T02:59:02.185Z,15.20
2017-08-12T03:01:29.624Z,15.30
2017-08-12T03:03:57.070Z,15.30
2017-08-12T03:06:24.505Z,15.30
2017-08-12T03:08:51.933Z,15.20
2017-08-12T03:11:19.472Z,15.20
2017-08-12T03:13:46.908Z,15.20
2017-08-12T03:16:14.359Z,15.20
2017-08-12T03:18:41.796Z,15.20
2017-08-12T03:21:09.234Z,15.20
2017-08-12T03:23:36.660Z,15.20
2017-08-12T03:26:04.115Z,15.20
2017-08-12T03:28:31.564Z,15.30
2017-08-12T03:30:59.130Z,15.20
2017-08-12T03:33:26.769Z,15.30
2017-08-12T03:35:54.205Z,15.30
2017-08-12T03:38:21.628Z,15.30
2017-08-12T03:40:49.064Z,15.30
2017-08-12T03:43:16.632Z,15.30
2017-08-12T03:45:44.117Z,15.20
2017-08-12T03:48:11.545Z,15.20
2017-08-12T03:50:38.988Z,15.30
2017-08-12T03:53:06.437Z,15.30
2017-08-12T03:55:33.900Z,15.30
2017-08-12T03:58:01.342Z,15.30
2017-08-12T04:00:28.782Z,15.30
2017-08-12T04:02:56.221Z,15.30
2017-08-12T04:05:23.690Z,15.30
2017-08-12T04:07:51.125Z,15.30
2017-08-12T04:10:19.325Z,15.30
2017-08-12T04:12:46.825Z,15.30
2017-08-12T04:15:14.262Z,15.30
2017-08-12T04:17:41.703Z,15.30
2017-08-12T04:20:09.129Z,15.30
2017-08-12T04:22:36.584Z,15.30
2017-08-12T04:25:04.016Z,15.30
2017-08-12T04:27:31.447Z,15.30
2017-08-12T04:29:58.892Z,15.30
2017-08-12T04:32:26.325Z,15.30
2017-08-12T04:34:53.768Z,15.30
2017-08-12T04:37:21.196Z,15.30
2017-08-12T04:39:48.633Z,15.30
2017-08-12T04:42:16.281Z,15.30
2017-08-12T04:44:43.733Z,15.40
2017-08-12T04:47:11.165Z,15.40
2017-08-12T04:49:38.600Z,15.40
2017-08-12T04:52:06.032Z,15.40
2017-08-12T04:54:33.482Z,15.30
2017-08-12T04:57:00.917Z,15.30
2017-08-12T04:59:28.401Z,15.30
2017-08-12T05:01:55.833Z,15.30
2017-08-12T05:04:23.279Z,15.30
2017-08-12T05:06:50.705Z,15.40
2017-08-12T05:09:18.144Z,15.40
2017-08-12T05:11:46.345Z,15.30
2017-08-12T05:14:13.772Z,15.30
2017-08-12T05:16:41.220Z,15.30
2017-08-12T05:19:08.652Z,15.30
2017-08-12T05:21:36.185Z,15.40
2017-08-12T05:24:03.714Z,15.40
2017-08-12T05:26:31.147Z,15.40
2017-08-12T05:28:58.577Z,15.40
2017-08-12T05:31:26.248Z,15.40
2017-08-12T05:33:53.674Z,15.40
2017-08-12T05:36:21.112Z,15.30
2017-08-12T05:38:48.688Z,15.30
2017-08-12T05:41:16.452Z,15.30
2017-08-12T05:43:43.880Z,15.40
2017-08-12T05:46:11.320Z,15.40
2017-08-12T05:48:38.778Z,15.40
2017-08-12T05:51:06.208Z,15.40
2017-08-12T05:53:33.651Z,15.40
2017-08-12T05:56:01.106Z,15.40
2017-08-12T05:58:29.353Z,15.50
2017-08-12T06:00:56.902Z,15.40
2017-08-12T06:03:24.362Z,15.50
2017-08-12T06:05:51.836Z,15.50
2017-08-12T06:08:19.277Z,15.50
2017-08-12T06:10:46.716Z,15.50
2017-08-12T06:13:14.189Z,15.50
2017-08-12T06:15:41.632Z,15.60
2017-08-12T06:18:09.069Z,15.60
2017-08-12T06:20:37.289Z,15.60
2017-08-12T06:23:04.757Z,15.60
2017-08-12T06:25:32.386Z,15.70
2017-08-12T06:27:59.821Z,15.70
2017-08-12T06:30:28.033Z,15.80
2017-08-12T06:32:55.490Z,15.80
2017-08-12T06:35:22.934Z,15.80
2017-08-12T06:37:50.361Z,15.80
2017-08-12T06:40:17.795Z,15.80
2017-08-12T06:42:45.228Z,15.80
2017-08-12T06:45:12.683Z,15.80
2017-08-12T06:47:40.117Z,15.90
2017-08-12T06:50:07.557Z,15.90
2017-08-12T06:52:34.980Z,15.90
2017-08-12T06:55:03.189Z,15.90
2017-08-12T06:57:30.695Z,15.90
2017-08-12T06:59:58.149Z,16.00
2017-08-12T07:02:25.802Z,16.00
2017-08-12T07:04:53.374Z,16.00
2017-08-12T07:07:20.812Z,16.00
2017-08-12T07:09:48.256Z,16.10
2017-08-12T07:12:15.689Z,16.10
2017-08-12T07:14:43.174Z,16.20
2017-08-12T07:17:10.620Z,16.20
2017-08-12T07:19:38.049Z,16.30
2017-08-12T07:22:05.484Z,16.30
2017-08-12T07:24:32.917Z,16.30
2017-08-12T07:27:00.420Z,16.30
2017-08-12T07:29:27.841Z,16.40
2017-08-12T07:31:55.275Z,16.30
2017-08-12T07:34:22.702Z,16.40
2017-08-12T07:36:50.193Z,16.40
2017-08-12T07:39:17.626Z,16.40
2017-08-12T07:41:45.105Z,16.40
2017-08-12T07:44:12.640Z,16.50
2017-08-12T07:46:40.072Z,16.50
2017-08-12T07:49:07.492Z,16.50
2017-08-12T07:51:34.934Z,16.50
2017-08-12T07:54:02.354Z,16.50
2017-08-12T07:56:29.784Z,16.60
2017-08-12T07:58:57.222Z,16.70
2017-08-12T08:01:25.432Z,16.80
2017-08-12T08:03:52.853Z,16.70
2017-08-12T08:06:20.273Z,16.80
2017-08-12T08:08:47.705Z,16.80
2017-08-12T08:11:15.144Z,16.80
2017-08-12T08:13:42.613Z,16.80
2017-08-12T08:16:10.036Z,16.90
2017-08-12T08:18:38.534Z,16.90
2017-08-12T08:21:05.961Z,16.90
2017-08-12T08:23:33.396Z,16.90
2017-08-12T08:26:00.877Z,16.90
2017-08-12T08:28:28.341Z,17.00
2017-08-12T08:30:55.776Z,17.00
2017-08-12T08:33:23.221Z,17.00
2017-08-12T08:35:50.756Z,17.10
2017-08-12T08:38:18.189Z,17.20
2017-08-12T08:40:45.622Z,17.30
2017-08-12T08:43:13.045Z,17.40
2017-08-12T08:45:40.488Z,17.30
2017-08-12T08:48:08.041Z,17.30
2017-08-12T08:50:35.481Z,17.30
2017-08-12T08:53:02.912Z,17.40
2017-08-12T08:55:30.340Z,17.50
2017-08-12T08:57:57.771Z,17.40
2017-08-12T09:00:25.207Z,17.40
2017-08-12T09:02:52.638Z,17.50
2017-08-12T09:05:20.092Z,17.50
2017-08-12T09:07:48.276Z,17.40
2017-08-12T09:10:15.705Z,17.30
2017-08-12T09:12:43.133Z,17.40
2017-08-12T09:15:10.589Z,17.40
2017-08-12T09:17:38.000Z,17.30
2017-08-12T09:20:05.439Z,17.30
2017-08-12T09:22:33.629Z,17.20
2017-08-12T09:25:01.060Z,17.20
2017-08-12T09:27:28.477Z,17.20
2017-08-12T09:29:55.925Z,17.20
2017-08-12T09:32:24.030Z,17.10
2017-08-12T09:34:51.449Z,17.20
2017-08-12T09:37:18.887Z,17.20
2017-08-12T09:39:46.468Z,17.10
2017-08-12T09:42:13.905Z,17.20
2017-08-12T09:44:41.320Z,17.10
2017-08-12T09:47:08.748Z,17.10
2017-08-12T09:49:36.175Z,17.10
2017-08-12T09:52:03.613Z,17.10
2017-08-12T09:54:31.040Z,17.10
2017-08-12T09:56:58.463Z,17.10
2017-08-12T09:59:25.880Z,17.10
2017-08-12T10:01:53.314Z,17.10
2017-08-12T10:04:20.728Z,17.10
2017-08-12T10:06:48.173Z,17.20
2017-08-12T10:09:15.590Z,17.20
2017-08-12T10:11:43.034Z,17.30
2017-08-12T10:14:10.463Z,17.30
2017-08-12T10:16:37.880Z,17.20
2017-08-12T10:19:05.309Z,17.30
2017-08-12T10:21:33.501Z,17.40
2017-08-12T10:24:00.936Z,17.40
2017-08-12T10:26:28.360Z,17.40
2017-08-12T10:28:55.803Z,17.40
2017-08-12T10:31:23.225Z,17.40
2017-08-12T10:33:50.724Z,17.40
2017-08-12T10:36:18.152Z,17.50
2017-08-12T10:38:45.584Z,17.50
2017-08-12T10:41:13.948Z,17.40
2017-08-12T10:43:41.476Z,17.40
2017-08-12T10:46:08.905Z,17.40
2017-08-12T10:48:36.353Z,17.40
2017-08-12T10:51:03.792Z,17.50
2017-08-12T10:53:31.225Z,17.40
2017-08-12T10:55:59.452Z,17.40
2017-08-12T10:58:26.886Z,17.40
2017-08-12T11:00:55.224Z,17.40
2017-08-12T11:03:22.667Z,17.30
2017-08-12T11:05:50.125Z,17.30
2017-08-12T11:08:17.532Z,17.30
2017-08-12T11:10:44.969Z,17.30
2017-08-12T11:13:13.148Z,17.00
2017-08-12T11:15:40.584Z,17.00
2017-08-12T11:18:08.035Z,17.10
2017-08-12T11:20:35.482Z,17.10
2017-08-12T11:23:02.889Z,17.10
2017-08-12T11:25:30.457Z,17.10
2017-08-12T11:27:57.884Z,17.10
2017-08-12T11:30:25.317Z,17.20
2017-08-12T11:32:52.829Z,17.20
2017-08-12T11:35:20.256Z,17.20
2017-08-12T11:37:47.692Z,17.30
2017-08-12T11:40:15.117Z,17.30
2017-08-12T11:42:42.549Z,17.20
2017-08-12T11:45:10.109Z,17.30
2017-08-12T11:47:37.560Z,17.30
2017-08-12T11:50:04.992Z,17.30
2017-08-12T11:52:32.434Z,17.30
2017-08-12T11:54:59.853Z,17.40
2017-08-12T11:57:27.284Z,17.40
2017-08-12T11:59:54.721Z,17.30
2017-08-12T12:02:22.139Z,17.30
2017-08-12T12:04:49.668Z,17.30
2017-08-12T12:07:17.090Z,17.20
2017-08-12T12:09:44.534Z,17.20
2017-08-12T12:12:11.953Z,17.20
2017-08-12T12:14:39.381Z,17.20
2017-08-12T12:17:06.816Z,17.10
2017-08-12T12:19:34.263Z,17.10
2017-08-12T12:22:01.829Z,17.10
2017-08-12T12:24:29.265Z,17.10
2017-08-12T12:26:57.502Z,17.00
2017-08-12T12:29:24.920Z,17.00
2017-08-12T12:31:52.399Z,17.00
2017-08-12T12:34:19.860Z,17.00
2017-08-12T12:36:47.312Z,17.00
2017-08-12T12:39:14.743Z,17.00
2017-08-12T12:41:42.173Z,17.00
2017-08-12T12:44:09.600Z,16.90
2017-08-12T12:46:37.029Z,17.00
2017-08-12T12:49:04.449Z,17.10
2017-08-12T12:51:31.884Z,17.20
2017-08-12T12:54:00.089Z,17.30
2017-08-12T12:56:27.526Z,17.30
2017-08-12T12:58:54.941Z,17.30
2017-08-12T13:01:22.490Z,17.40
2017-08-12T13:03:49.948Z,17.40
2017-08-12T13:06:17.389Z,17.50
2017-08-12T13:08:44.804Z,17.50
2017-08-12T13:11:12.307Z,17.60
2017-08-12T13:13:39.773Z,17.60
2017-08-12T13:16:07.484Z,17.70
2017-08-12T13:18:34.905Z,17.70
2017-08-12T13:21:02.450Z,17.80
2017-08-12T13:23:30.096Z,17.90
2017-08-12T13:25:57.513Z,17.90
2017-08-12T13:28:25.693Z,18.00
2017-08-12T13:30:53.118Z,18.00
2017-08-12T13:33:20.590Z,18.00
2017-08-12T13:35:48.013Z,18.10
2017-08-12T13:38:15.450Z,18.10
2017-08-12T13:43:16.784Z,18.10
2017-08-12T13:45:44.217Z,18.10
2017-08-12T13:48:12.413Z,18.20
2017-08-12T13:50:39.833Z,18.20
2017-08-12T13:53:07.278Z,18.20
2017-08-12T13:55:34.817Z,18.30
2017-08-12T13:58:02.244Z,18.30
2017-08-12T14:00:29.665Z,18.40
2017-08-12T14:02:57.108Z,18.40
2017-08-12T14:05:24.645Z,18.40
2017-08-12T14:07:52.097Z,18.40
2017-08-12T14:10:19.529Z,18.50
2017-08-12T14:12:46.953Z,18.40
2017-08-12T14:15:14.433Z,18.40
2017-08-12T14:17:41.860Z,18.40
2017-08-12T14:20:09.276Z,18.40
2017-08-12T14:22:36.721Z,18.40
2017-08-12T14:25:04.137Z,18.40
2017-08-12T14:27:32.350Z,18.30
2017-08-12T14:29:59.777Z,18.30
2017-08-12T14:32:27.268Z,18.30
2017-08-12T14:34:54.692Z,18.40
2017-08-12T14:37:22.133Z,18.50
2017-08-12T14:39:49.552Z,18.50
2017-08-12T14:42:17.001Z,18.60
2017-08-12T14:44:44.425Z,18.60
2017-08-12T14:47:11.856Z,18.60
2017-08-12T14:49:40.053Z,18.60
2017-08-12T14:52:07.487Z,18.60
2017-08-12T14:54:35.001Z,18.60
2017-08-12T14:57:02.417Z,18.60
2017-08-12T14:59:29.841Z,18.70
2017-08-12T15:01:57.277Z,18.70
2017-08-12T15:04:24.808Z,18.70
2017-08-12T15:06:52.264Z,18.60
2017-08-12T15:09:19.693Z,18.60
2017-08-12T15:11:47.130Z,18.70
2017-08-12T15:14:14.636Z,18.70
2017-08-12T15:16:42.089Z,18.70
2017-08-12T15:19:09.521Z,18.70
2017-08-12T15:21:37.013Z,18.70
2017-08-12T15:24:04.498Z,18.70
2017-08-12T15:26:31.920Z,18.70
2017-08-12T15:28:59.356Z,18.70
2017-08-12T15:31:26.815Z,18.80
2017-08-12T15:33:54.237Z,18.80
2017-08-12T15:36:21.661Z,18.80
2017-08-12T15:38:49.092Z,18.80
2017-08-12T15:41:16.613Z,18.80
2017-08-12T15:43:44.049Z,18.80
2017-08-12T15:46:11.508Z,18.90
2017-08-12T15:48:38.937Z,18.90
2017-08-12T15:51:06.389Z,19.00
2017-08-12T15:53:33.804Z,19.00
2017-08-12T15:56:01.233Z,19.00
2017-08-12T15:58:29.431Z,19.00
2017-08-12T16:00:56.848Z,19.00
2017-08-12T16:03:24.277Z,19.00
2017-08-12T16:05:51.704Z,19.00
2017-08-12T16:08:19.164Z,19.00
2017-08-12T16:10:46.644Z,19.00
2017-08-12T16:13:14.072Z,19.00
2017-08-12T16:15:41.548Z,18.90
2017-08-12T16:18:09.040Z,19.00
2017-08-12T16:20:36.473Z,18.90
2017-08-12T16:23:03.901Z,18.90
2017-08-12T16:25:31.316Z,18.90
2017-08-12T16:27:58.997Z,18.90
2017-08-12T16:30:26.405Z,18.90
2017-08-12T16:32:53.840Z,18.90
2017-08-12T16:35:21.252Z,18.90
2017-08-12T16:37:48.708Z,18.90
2017-08-12T16:40:16.137Z,18.90
2017-08-12T16:42:43.566Z,18.90
2017-08-12T16:45:11.005Z,18.90
2017-08-12T16:47:38.420Z,18.90
2017-08-12T16:50:05.863Z,18.90
2017-08-12T16:52:33.281Z,18.80
2017-08-12T16:55:00.709Z,18.80
2017-08-12T16:57:28.137Z,18.80
2017-08-12T16:59:55.574Z,18.70
2017-08-12T17:02:22.997Z,18.70
2017-08-12T17:04:50.441Z,18.60
2017-08-12T17:07:17.873Z,18.60
2017-08-12T17:29:54.491Z,18.60
2017-08-12T17:32:21.962Z,18.60
2017-08-12T17:34:49.647Z,18.60
2017-08-12T17:37:17.062Z,18.60
2017-08-12T17:39:44.514Z,18.60
2017-08-12T17:42:12.895Z,18.60
2017-08-12T17:44:41.455Z,18.60
2017-08-12T17:47:09.084Z,18.60
2017-08-12T17:49:36.917Z,18.60
2017-08-12T17:52:04.467Z,18.60
2017-08-12T17:54:32.079Z,18.60
2017-08-12T17:56:59.492Z,18.50
2017-08-12T17:59:26.943Z,18.60
2017-08-12T18:01:54.364Z,18.50
2017-08-12T18:04:21.924Z,18.50
2017-08-12T18:06:49.340Z,18.50
2017-08-12T18:09:16.763Z,18.50
2017-08-12T18:11:44.268Z,18.50
2017-08-12T18:14:11.687Z,18.50
2017-08-12T18:16:39.152Z,18.40
2017-08-12T18:19:06.593Z,18.40
2017-08-12T18:21:34.024Z,18.30
2017-08-12T18:24:02.247Z,18.20
2017-08-12T18:26:29.683Z,18.20
2017-08-12T18:28:57.103Z,18.20
2017-08-12T18:31:24.528Z,18.10
2017-08-12T18:33:51.979Z,18.10
2017-08-12T18:36:19.524Z,18.10
2017-08-12T18:38:46.942Z,18.10
2017-08-12T18:41:14.348Z,18.10
2017-08-12T18:43:41.781Z,18.10
2017-08-12T18:46:09.250Z,18.10
2017-08-12T18:48:36.720Z,18.10
2017-08-12T18:51:04.170Z,18.10
2017-08-12T18:53:31.612Z,18.10
2017-08-12T18:55:59.199Z,18.10
2017-08-12T18:58:26.636Z,18.10
2017-08-12T19:00:54.051Z,18.10
2017-08-12T19:03:21.486Z,18.20
2017-08-12T19:05:48.904Z,18.10
2017-08-12T19:08:16.332Z,18.10
2017-08-12T19:10:43.760Z,18.00
2017-08-12T19:13:11.959Z,18.20
2017-08-12T19:15:39.377Z,18.20
2017-08-12T19:18:06.816Z,18.10
2017-08-12T19:20:34.265Z,18.10
2017-08-12T19:23:01.692Z,18.10
2017-08-12T19:25:29.259Z,18.10
2017-08-12T19:27:56.719Z,18.10
2017-08-12T19:30:24.191Z,18.10
2017-08-12T19:32:51.606Z,18.00
2017-08-12T19:35:19.034Z,18.00
2017-08-12T19:37:46.475Z,18.00
2017-08-12T19:40:14.008Z,18.00
2017-08-12T19:45:15.951Z,18.00
2017-08-12T19:47:43.405Z,18.00
2017-08-12T19:50:10.800Z,18.10
2017-08-12T19:52:38.232Z,18.00
2017-08-12T19:55:05.751Z,18.00
2017-08-12T19:57:33.189Z,18.10
2017-08-12T20:00:00.604Z,18.10
2017-08-12T20:02:28.109Z,18.10
2017-08-12T20:04:55.536Z,18.00
2017-08-12T20:07:22.966Z,18.00
2017-08-12T20:09:50.396Z,18.00
2017-08-12T20:12:18.585Z,18.00
2017-08-12T20:14:46.028Z,18.00
2017-08-12T20:17:13.464Z,18.00
2017-08-12T20:19:40.892Z,18.00
2017-08-12T20:22:08.303Z,18.00
2017-08-12T20:24:35.765Z,18.00
2017-08-12T20:27:03.203Z,18.00
2017-08-12T20:29:31.412Z,18.00
2017-08-12T20:31:58.827Z,18.00
2017-08-12T20:34:26.340Z,18.00
2017-08-12T20:36:53.764Z,18.00
2017-08-12T20:39:21.183Z,18.00
2017-08-12T20:41:48.624Z,18.00
2017-08-12T20:44:16.031Z,18.00
2017-08-12T20:46:43.471Z,18.00
2017-08-12T20:49:11.668Z,18.00
2017-08-12T20:51:39.147Z,18.00
2017-08-12T20:54:06.579Z,18.00
2017-08-12T20:56:34.456Z,18.00
2017-08-12T20:59:01.928Z,17.90
2017-08-12T21:01:29.461Z,18.00
2017-08-12T21:03:56.954Z,18.00
2017-08-12T21:06:24.363Z,18.00
2017-08-12T21:08:51.833Z,17.90
2017-08-12T21:11:19.295Z,17.90
2017-08-12T21:13:46.781Z,17.90
2017-08-12T21:16:14.239Z,17.90
2017-08-12T21:18:41.678Z,17.90
2017-08-12T21:21:09.131Z,17.90
2017-08-12T21:23:36.588Z,17.90
2017-08-12T21:26:03.996Z,17.90
2017-08-12T21:28:32.191Z,17.90
2017-08-12T21:30:59.614Z,17.90
2017-08-12T21:33:27.030Z,17.80
2017-08-12T21:35:54.464Z,17.80
2017-08-12T21:38:21.934Z,17.70
2017-08-12T21:40:49.386Z,17.70
2017-08-12T21:43:16.808Z,17.80
2017-08-12T21:45:45.008Z,17.70
2017-08-12T21:48:12.419Z,17.70
2017-08-12T21:50:39.841Z,17.70
2017-08-12T21:53:07.263Z,17.70
2017-08-12T21:55:34.684Z,17.70
2017-08-12T21:58:02.204Z,17.70
2017-08-12T22:00:29.627Z,17.70
2017-08-12T22:02:57.221Z,17.70
2017-08-12T22:05:24.644Z,17.70
2017-08-12T22:07:52.077Z,17.70
2017-08-12T22:10:19.500Z,17.70
2017-08-12T22:12:46.946Z,17.60
2017-08-12T22:15:14.363Z,17.70
2017-08-12T22:17:41.960Z,17.80
2017-08-12T22:20:09.386Z,17.70
2017-08-12T22:22:36.859Z,17.70
2017-08-12T22:25:04.320Z,17.70
2017-08-12T22:27:31.740Z,17.70
2017-08-12T22:29:59.192Z,17.70
2017-08-12T22:32:26.616Z,17.70
2017-08-12T22:34:54.066Z,17.70
2017-08-12T22:37:21.483Z,17.70
2017-08-12T22:39:48.899Z,17.70
2017-08-12T22:42:17.091Z,17.70
2017-08-12T22:44:44.503Z,17.70
2017-08-12T22:47:11.935Z,17.70
2017-08-12T22:49:39.363Z,17.80
2017-08-12T22:52:07.599Z,17.70
2017-08-12T22:54:35.027Z,17.70
2017-08-12T22:57:02.452Z,17.70
2017-08-12T22:59:29.867Z,17.70
2017-08-12T23:01:57.295Z,17.70
2017-08-12T23:04:24.724Z,17.70
2017-08-12T23:06:52.148Z,17.70
2017-08-12T23:09:19.763Z,17.70
2017-08-12T23:11:47.187Z,17.70
2017-08-12T23:14:14.611Z,17.70
2017-08-12T23:16:42.040Z,17.60
2017-08-12T23:19:09.467Z,17.60
2017-08-12T23:21:36.892Z,17.60
2017-08-12T23:24:05.084Z,17.60
2017-08-12T23:26:32.515Z,17.60
2017-08-12T23:28:59.979Z,17.70
2017-08-12T23:31:27.403Z,17.70
2017-08-12T23:33:54.838Z,17.70
2017-08-12T23:36:22.264Z,17.60
2017-08-12T23:38:49.719Z,17.70
2017-08-12T23:41:17.308Z,17.60
2017-08-12T23:43:44.720Z,17.70
2017-08-12T23:46:12.148Z,17.60
2017-08-12T23:48:39.568Z,17.60
2017-08-12T23:51:07.064Z,17.60
2017-08-12T23:53:34.491Z,17.60
2017-08-12T23:56:01.928Z,17.60
2017-08-12T23:58:29.364Z,17.60
